x

Cape San Martin - 55nm West Nw Of Morro Bay, Ca (46028) Weather Station

3:50pm - Thu 26th Feb 2015 All times are PST. -8 hours from GMT.

  • Wind
    31mph, 40mph gusts
  • Sea Temp 59°f
  • Air Temp 58°f
  • Sea Pressure 1012.6mb
  • Cape San Martin - 55nm West Nw Of Morro Bay, Ca
  • Cape San Martin - 55nm West Nw Of Morro Bay, Ca

More Historic Weather Station data

Upgrade to MSW Pro to gain access to the past 30 days of data for over 8000 Wavebouys and Weather Stations around the globe.

Join Pro

Comparision Forecast

View Surf forecast
   
Thu 02/26 3:50pm  -   -   -  31 40 mph 1012.6mb 59f 58f
2:50pm  -   -   -  31 36 mph 1012.5mb 59f 58f
1:50pm  -   -   -  31 36 mph 1013mb 59f 58f
12:50pm  -   -   -  29 34 mph 1013.9mb 59f 58f
11:50am  -   -   -  29 34 mph 1014.9mb 59f 58f
10:50am  -   -   -  25 31 mph 1015.8mb 59f 58f
9:50am  -   -   -  25 31 mph 1016.1mb 59f 58f
8:50am  -   -   -  20 27 mph 1016.3mb 58f 58f
7:50am  -   -   -  20 27 mph 1016.1mb 58f 57f
6:50am  -   -   -  25 29 mph 1015.3mb 59f 57f
5:50am  -   -   -  25 29 mph 1015.5mb 59f 57f
4:50am  -   -   -  22 29 mph 1015.6mb 59f 58f
3:50am  -   -   -  22 27 mph 1016.4mb 59f 57f
2:50am  -   -   -  20 25 mph 1016.4mb 59f 57f
1:50am  -   -   -  22 27 mph 1017.5mb 59f 57f
12:50am  -   -   -  25 31 mph 1017.7mb 59f 57f
Wed 02/25 11:50pm  -   -   -  25 29 mph 1018.2mb 59f 57f
10:50pm  -   -   -  22 27 mph 1018.1mb 59f 57f
9:50pm  -   -   -  29 34 mph 1018.6mb 59f 57f
8:50pm  -   -   -  29 36 mph 1018.5mb 59f 58f
7:50pm  -   -   -  25 29 mph 1018.5mb 59f 58f
6:50pm  -   -   -  25 27 mph 1018.7mb 59f 57f
5:50pm  -   -   -  22 27 mph 1018.9mb 59f 57f
4:50pm  -   -   -  22 27 mph 1019.5mb 59f 57f
3:50pm  -   -   -  18 22 mph 1019.5mb 59f 57f
2:50pm  -   -   -  18 22 mph 1020mb 59f 57f
1:50pm  -   -   -  22 25 mph 1021.1mb 59f 57f
12:50pm  -   -   -  22 27 mph 1022.2mb 59f 56f
11:50am  -   -   -  20 22 mph 1022.9mb 59f 56f
10:50am  -   -   -  13 18 mph 1023.5mb 59f 56f
9:50am  -   -   -  16 18 mph 1023.9mb 59f 56f
8:50am  -   -   -  18 22 mph 1024mb 59f 56f
7:50am  -   -   -  16 20 mph 1023.6mb 59f 56f
6:50am  -   -   -  18 20 mph 1023.4mb 59f 56f
5:50am  -   -   -  20 22 mph 1023.5mb 59f 57f
4:50am  -   -   -  20 25 mph 1024mb 59f 56f
3:50am  -   -   -  18 22 mph 1024mb 59f 56f
2:50am  -   -   -  18 20 mph 1024.5mb 59f 56f
1:50am  -   -   -  16 20 mph 1025.1mb 59f 56f
12:50am  -   -   -  18 20 mph 1025.2mb 59f 57f
Tue 02/24 11:50pm  -   -   -  20 22 mph 1025.2mb 59f 57f
10:50pm  -   -   -  20 25 mph 1025mb 59f 57f
9:50pm  -   -   -  18 20 mph 1025.3mb 59f 57f
8:50pm  -   -   -  18 22 mph 1025.4mb 59f 57f
7:50pm  -   -   -  18 22 mph 1025.4mb 59f 57f
6:50pm  -   -   -  18 22 mph 1025.1mb 59f 58f
5:50pm  -   -   -  18 20 mph 1024.7mb 59f 58f
4:50pm  -   -   -  16 20 mph 1024.3mb 59f 59f
3:50pm  -   -   -  18 22 mph 1024.2mb 59f 59f
2:50pm  -   -   -  16 18 mph 1024.5mb 59f 59f
1:50pm  -   -   -  16 18 mph 1024.8mb 59f 58f
12:50pm  -   -   -  16 20 mph 1025.3mb 59f 58f
11:50am  -   -   -  18 20 mph 1025.9mb 59f 58f
10:50am  -   -   -  18 22 mph 1026.5mb 59f 58f
9:50am  -   -   -  16 20 mph 1027mb 59f 58f
8:50am  -   -   -  16 20 mph 1026.7mb 58f 58f
7:50am  -   -   -  13 16 mph 1026.5mb 58f 58f
6:50am  -   -   -  13 16 mph 1025.8mb 58f 57f
5:50am  -   -   -  11 13 mph 1025mb 58f 58f
4:50am  -   -   -  16 18 mph 1024.5mb 58f 58f
3:50am  -   -   -  18 20 mph 1024.5mb 58f 58f
2:50am  -   -   -  9 11 mph 1024.2mb 58f 58f
1:50am  -   -   -  9 11 mph 1024.1mb 58f 58f
12:50am  -   -   -  4 7 mph 1023.5mb 58f 58f
Mon 02/23 11:50pm  -   -   -  2 4 mph 1022.9mb 58f 59f
10:50pm  -   -   -  7 9 mph 1022.1mb 58f 59f
9:50pm  -   -   -  9 11 mph 1021.6mb 58f 59f
8:50pm  -   -   -  9 11 mph 1021.2mb 59f 59f
7:50pm  -   -   -  9 13 mph 1020.1mb 59f 59f
6:50pm  -   -   -  13 16 mph 1019.3mb 59f 59f
5:50pm  -   -   -  18 20 mph 1018.5mb 59f 58f
4:50pm  -   -   -  16 18 mph 1018.2mb 59f 58f
3:50pm  -   -   -  13 18 mph 1017.3mb 58f 57f
1:50pm  -   -   -  16 20 mph 1016.3mb 58f 56f
12:50pm  -   -   -  18 20 mph 1015.9mb 58f 56f
11:50am  -   -   -  20 22 mph 1015.8mb 58f 56f
10:50am  -   -   -  18 22 mph 1015.9mb 58f 56f
9:50am  -   -   -  18 22 mph 1015.5mb 58f 56f
8:50am  -   -   -  22 27 mph 1014.6mb 58f 57f
7:50am  -   -   -  22 27 mph 1013.5mb 58f 57f
6:50am  -   -   -  22 27 mph 1012.7mb 59f 57f
5:50am  -   -   -  20 25 mph 1012.2mb 59f 58f
4:50am  -   -   -  22 27 mph 1011.5mb 59f 59f
3:50am 6ft 14s 6s 22 25 mph 1011.1mb 59f 59f
2:50am  -   -   -  20 25 mph 1010.7mb 59f 59f
1:50am  -   -   -  20 25 mph 1010.4mb 59f 59f
12:50am  -   -   -  20 25 mph 1010.3mb 59f 59f